Airport Name : Palmdale Rgnl Usaf Plt 42

Other Name : Palmdale

ICAO : KPMD

IATA : PMD

FAA : PMD

Latitude : 34.629391

Longitude : -118.08456

Country : United States

Local Date and Time : 20 Apr 2024 22:33

 

TAF (Terminal Aerodrome Forecast)

KPMD 202349Z 2100/2124 28014G22KT P6SM SKC FM210500 27008KT P6SM SKC FM211400 VRB03KT P6SM SKC FM212300 25012KT P6SM SKC

 

METAR (METeorological Aerodrome Report)

KPMD 210453Z 25005KT 10SM CLR 18/07 A3005 RMK AO2 SLP154 T01830072

KPMD 210353Z 28011KT 10SM CLR 21/07 A3003 RMK AO2 SLP149 T02110072

KPMD 210253Z 28018KT 10SM CLR 22/07 A3000 RMK AO2 PK WND 28027/0236 SLP140 T02170072 53014

KPMD 210153Z 29018G24KT 10SM CLR 24/07 A2999 RMK AO2 PK WND 29030/0122 SLP136 T02390067